createdAt,value
2018-01-26T00:00:01.954Z,958.85
2018-01-26T00:01:01.951Z,958.86
2018-01-26T00:02:01.948Z,958.94
2018-01-26T00:03:01.946Z,958.90
2018-01-26T00:04:01.944Z,958.87
2018-01-26T00:05:01.942Z,958.86
2018-01-26T00:06:01.935Z,958.88
2018-01-26T00:07:01.938Z,958.88
2018-01-26T00:08:01.929Z,958.86
2018-01-26T00:09:01.926Z,958.87
2018-01-26T00:10:01.921Z,958.87
2018-01-26T00:11:01.919Z,958.83
2018-01-26T00:12:01.916Z,958.81
2018-01-26T00:13:01.914Z,958.82
2018-01-26T00:14:01.913Z,958.80
2018-01-26T00:15:01.905Z,958.78
2018-01-26T00:16:01.903Z,958.81
2018-01-26T00:17:01.899Z,958.77
2018-01-26T00:18:01.895Z,958.79
2018-01-26T00:19:01.917Z,958.71
2018-01-26T00:20:01.893Z,958.69
2018-01-26T00:21:01.887Z,958.74
2018-01-26T00:22:01.883Z,958.73
2018-01-26T00:23:01.884Z,958.72
2018-01-26T00:24:01.874Z,958.69
2018-01-26T00:25:01.874Z,958.69
2018-01-26T00:26:01.869Z,958.67
2018-01-26T00:27:01.866Z,958.66
2018-01-26T00:28:01.864Z,958.61
2018-01-26T00:29:01.862Z,958.63
2018-01-26T00:30:01.857Z,958.62
2018-01-26T00:31:01.854Z,958.63
2018-01-26T00:32:01.850Z,958.60
2018-01-26T00:33:01.846Z,958.64
2018-01-26T00:34:01.843Z,958.58
2018-01-26T00:35:01.843Z,958.57
2018-01-26T00:36:01.836Z,958.57
2018-01-26T00:37:01.833Z,958.53
2018-01-26T00:38:01.831Z,958.53
2018-01-26T00:39:01.827Z,958.51
2018-01-26T00:40:01.829Z,958.55
2018-01-26T00:41:01.842Z,958.62
2018-01-26T00:42:01.817Z,958.58
2018-01-26T00:43:01.814Z,958.55
2018-01-26T00:44:01.811Z,958.55
2018-01-26T00:45:01.810Z,958.55
2018-01-26T00:46:01.802Z,958.56
2018-01-26T00:47:01.799Z,958.60
2018-01-26T00:48:01.794Z,958.59
2018-01-26T00:49:01.796Z,958.60
2018-01-26T00:50:01.811Z,958.55
2018-01-26T00:51:01.785Z,958.53
2018-01-26T00:52:01.784Z,958.54
2018-01-26T00:53:01.778Z,958.55
2018-01-26T00:54:01.776Z,958.60
2018-01-26T00:55:01.771Z,958.58
2018-01-26T00:56:01.768Z,958.59
2018-01-26T00:57:01.765Z,958.63
2018-01-26T00:58:01.761Z,958.64
2018-01-26T00:59:01.764Z,958.58
2018-01-26T01:00:01.756Z,958.60
2018-01-26T01:01:01.752Z,958.63
2018-01-26T01:02:01.749Z,958.66
2018-01-26T01:03:01.745Z,958.65
2018-01-26T01:04:01.741Z,958.65
2018-01-26T01:05:01.737Z,958.66
2018-01-26T01:06:01.732Z,958.68
2018-01-26T01:07:01.729Z,958.67
2018-01-26T01:08:01.728Z,958.63
2018-01-26T01:09:01.722Z,958.66
2018-01-26T01:10:01.717Z,958.63
2018-01-26T01:11:01.741Z,958.63
2018-01-26T01:12:01.711Z,958.65
2018-01-26T01:13:01.709Z,958.64
2018-01-26T01:14:01.719Z,958.58
2018-01-26T01:15:01.702Z,958.63
2018-01-26T01:16:01.697Z,958.66
2018-01-26T01:17:01.692Z,958.72
2018-01-26T01:18:01.691Z,958.71
2018-01-26T01:19:01.686Z,958.69
2018-01-26T01:20:01.689Z,958.70
2018-01-26T01:21:01.682Z,958.70
2018-01-26T01:22:01.675Z,958.63
2018-01-26T01:23:01.671Z,958.69
2018-01-26T01:24:01.716Z,958.65
2018-01-26T01:25:01.668Z,958.64
2018-01-26T01:26:01.661Z,958.64
2018-01-26T01:27:01.657Z,958.59
2018-01-26T01:28:01.671Z,958.65
2018-01-26T01:29:01.652Z,958.61
2018-01-26T01:30:01.656Z,958.58
2018-01-26T01:31:01.645Z,958.62
2018-01-26T01:32:01.640Z,958.58
2018-01-26T01:33:01.637Z,958.57
2018-01-26T01:34:01.635Z,958.65
2018-01-26T01:35:01.630Z,958.61
2018-01-26T01:36:01.627Z,958.63
2018-01-26T01:37:01.622Z,958.63
2018-01-26T01:38:01.621Z,958.61
2018-01-26T01:39:01.616Z,958.63
2018-01-26T01:40:01.613Z,958.66
2018-01-26T01:41:01.621Z,958.68
2018-01-26T01:42:01.604Z,958.64
2018-01-26T01:43:01.600Z,958.66
2018-01-26T01:44:01.620Z,958.66
2018-01-26T01:45:01.595Z,958.67
2018-01-26T01:46:01.588Z,958.67
2018-01-26T01:47:01.586Z,958.71
2018-01-26T01:48:01.582Z,958.72
2018-01-26T01:49:01.578Z,958.75
2018-01-26T01:50:01.574Z,958.74
2018-01-26T01:51:01.576Z,958.71
2018-01-26T01:52:01.571Z,958.76
2018-01-26T01:53:01.565Z,958.78
2018-01-26T01:54:01.561Z,958.81
2018-01-26T01:55:01.557Z,958.82
2018-01-26T01:56:01.557Z,958.81
2018-01-26T01:57:01.550Z,958.86
2018-01-26T01:58:01.546Z,958.84
2018-01-26T01:59:01.542Z,958.86
2018-01-26T02:00:01.543Z,958.82
2018-01-26T02:01:01.544Z,958.82
2018-01-26T02:02:01.540Z,958.80
2018-01-26T02:03:01.533Z,958.77
2018-01-26T02:04:01.528Z,958.74
2018-01-26T02:05:01.536Z,958.78
2018-01-26T02:06:01.519Z,958.79
2018-01-26T02:07:01.527Z,958.75
2018-01-26T02:08:01.509Z,958.68
2018-01-26T02:09:01.506Z,958.71
2018-01-26T02:10:01.503Z,958.67
2018-01-26T02:11:01.498Z,958.63
2018-01-26T02:12:01.496Z,958.56
2018-01-26T02:13:01.493Z,958.58
2018-01-26T02:14:01.487Z,958.57
2018-01-26T02:15:01.485Z,958.55
2018-01-26T02:16:01.494Z,958.53
2018-01-26T02:17:01.476Z,958.51
2018-01-26T02:18:01.476Z,958.48
2018-01-26T02:19:01.470Z,958.49
2018-01-26T02:20:01.467Z,958.48
2018-01-26T02:21:01.464Z,958.45
2018-01-26T02:22:01.463Z,958.50
2018-01-26T02:23:01.457Z,958.53
2018-01-26T02:24:01.454Z,958.45
2018-01-26T02:25:01.451Z,958.43
2018-01-26T02:26:01.452Z,958.46
2018-01-26T02:27:01.439Z,958.49
2018-01-26T02:28:01.440Z,958.44
2018-01-26T02:29:01.435Z,958.41
2018-01-26T02:30:01.439Z,958.40
2018-01-26T02:31:01.429Z,958.39
2018-01-26T02:32:01.424Z,958.41
2018-01-26T02:33:01.423Z,958.38
2018-01-26T02:34:01.415Z,958.41
2018-01-26T02:35:01.414Z,958.43
2018-01-26T02:36:01.419Z,958.46
2018-01-26T02:37:01.404Z,958.45
2018-01-26T02:38:01.403Z,958.44
2018-01-26T02:39:01.399Z,958.41
2018-01-26T02:40:01.398Z,958.42
2018-01-26T02:41:01.391Z,958.48
2018-01-26T02:42:01.387Z,958.47
2018-01-26T02:43:01.387Z,958.47
2018-01-26T02:44:01.379Z,958.48
2018-01-26T02:45:01.382Z,958.44
2018-01-26T02:46:01.373Z,958.45
2018-01-26T02:47:01.376Z,958.48
2018-01-26T02:48:01.368Z,958.46
2018-01-26T02:49:01.360Z,958.47
2018-01-26T02:50:01.358Z,958.46
2018-01-26T02:51:01.359Z,958.48
2018-01-26T02:52:01.358Z,958.50
2018-01-26T02:53:01.347Z,958.52
2018-01-26T02:54:01.374Z,958.59
2018-01-26T02:55:01.342Z,958.54
2018-01-26T02:56:01.340Z,958.53
2018-01-26T02:57:01.340Z,958.53
2018-01-26T02:58:01.332Z,958.51
2018-01-26T02:59:01.327Z,958.54
2018-01-26T03:00:01.350Z,958.54
2018-01-26T03:01:01.320Z,958.57
2018-01-26T03:02:01.345Z,958.61
2018-01-26T03:03:01.314Z,958.63
2018-01-26T03:04:01.308Z,958.67
2018-01-26T03:05:01.311Z,958.64
2018-01-26T03:06:01.305Z,958.62
2018-01-26T03:07:01.310Z,958.64
2018-01-26T03:08:01.295Z,958.59
2018-01-26T03:09:01.291Z,958.65
2018-01-26T03:10:01.287Z,958.68
2018-01-26T03:11:01.287Z,958.69
2018-01-26T03:12:01.281Z,958.68
2018-01-26T03:13:01.299Z,958.75
2018-01-26T03:14:01.274Z,958.74
2018-01-26T03:15:01.279Z,958.82
2018-01-26T03:16:01.269Z,958.80
2018-01-26T03:17:01.267Z,958.77
2018-01-26T03:18:01.258Z,958.71
2018-01-26T03:19:01.252Z,958.78
2018-01-26T03:20:01.253Z,958.81
2018-01-26T03:21:01.249Z,958.83
2018-01-26T03:22:01.247Z,958.91
2018-01-26T03:23:01.240Z,958.92
2018-01-26T03:24:01.239Z,958.96
2018-01-26T03:25:01.233Z,958.93
2018-01-26T03:26:01.254Z,958.93
2018-01-26T03:27:01.231Z,958.92
2018-01-26T03:28:01.312Z,958.92
2018-01-26T03:29:01.222Z,958.91
2018-01-26T03:30:01.216Z,958.93
2018-01-26T03:31:01.234Z,958.89
2018-01-26T03:32:01.216Z,958.95
2018-01-26T03:33:01.225Z,959.02
2018-01-26T03:34:01.200Z,959.04
2018-01-26T03:35:01.197Z,959.00
2018-01-26T03:36:01.198Z,958.98
2018-01-26T03:37:01.196Z,959.00
2018-01-26T03:38:01.188Z,959.03
2018-01-26T03:39:01.186Z,959.09
2018-01-26T03:40:01.181Z,959.09
2018-01-26T03:41:01.181Z,959.10
2018-01-26T03:42:01.212Z,959.09
2018-01-26T03:43:01.170Z,959.12
2018-01-26T03:44:01.168Z,959.11
2018-01-26T03:45:01.163Z,959.10
2018-01-26T03:46:01.193Z,959.10
2018-01-26T03:47:01.153Z,959.10
2018-01-26T03:48:01.157Z,959.15
2018-01-26T03:49:01.161Z,959.13
2018-01-26T03:50:01.146Z,959.17
2018-01-26T03:51:01.163Z,959.14
2018-01-26T03:52:01.138Z,959.16
2018-01-26T03:53:01.130Z,959.14
2018-01-26T03:54:01.155Z,959.20
2018-01-26T03:55:01.147Z,959.17
2018-01-26T03:56:01.123Z,959.21
2018-01-26T03:57:01.133Z,959.18
2018-01-26T03:58:01.125Z,959.22
2018-01-26T03:59:01.112Z,959.19
2018-01-26T04:00:01.110Z,959.18
2018-01-26T04:01:01.130Z,959.22
2018-01-26T04:02:01.106Z,959.17
2018-01-26T04:03:01.116Z,959.24
2018-01-26T04:04:01.116Z,959.22
2018-01-26T04:05:01.093Z,959.26
2018-01-26T04:06:01.104Z,959.24
2018-01-26T04:07:01.084Z,959.26
2018-01-26T04:08:01.105Z,959.23
2018-01-26T04:09:01.080Z,959.24
2018-01-26T04:10:01.073Z,959.20
2018-01-26T04:11:01.080Z,959.23
2018-01-26T04:12:01.065Z,959.19
2018-01-26T04:13:01.065Z,959.24
2018-01-26T04:14:01.076Z,959.26
2018-01-26T04:15:01.065Z,959.24
2018-01-26T04:16:01.098Z,959.30
2018-01-26T04:17:01.051Z,959.33
2018-01-26T04:18:01.052Z,959.33
2018-01-26T04:19:01.041Z,959.35
2018-01-26T04:20:01.044Z,959.34
2018-01-26T04:21:01.048Z,959.32
2018-01-26T04:22:01.034Z,959.33
2018-01-26T04:23:01.027Z,959.34
2018-01-26T04:24:01.035Z,959.39
2018-01-26T04:25:01.021Z,959.35
2018-01-26T04:26:01.014Z,959.37
2018-01-26T04:27:01.010Z,959.37
2018-01-26T04:28:01.010Z,959.36
2018-01-26T04:29:01.006Z,959.35
2018-01-26T04:30:01.001Z,959.33
2018-01-26T04:31:01.001Z,959.33
2018-01-26T04:32:01.002Z,959.33
2018-01-26T04:33:00.994Z,959.31
2018-01-26T04:34:00.989Z,959.33
2018-01-26T04:35:00.984Z,959.37
2018-01-26T04:36:00.982Z,959.36
2018-01-26T04:37:00.977Z,959.34
2018-01-26T04:38:00.972Z,959.37
2018-01-26T04:39:00.971Z,959.41
2018-01-26T04:40:00.966Z,959.39
2018-01-26T04:41:00.964Z,959.42
2018-01-26T04:42:00.961Z,959.41
2018-01-26T04:43:00.956Z,959.41
2018-01-26T04:44:00.967Z,959.39
2018-01-26T04:45:00.957Z,959.38
2018-01-26T04:46:00.950Z,959.44
2018-01-26T04:47:00.965Z,959.43
2018-01-26T04:48:00.938Z,959.46
2018-01-26T04:49:00.934Z,959.47
2018-01-26T04:50:00.939Z,959.44
2018-01-26T04:51:00.927Z,959.44
2018-01-26T04:52:00.935Z,959.52
2018-01-26T04:53:00.920Z,959.48
2018-01-26T04:54:00.921Z,959.56
2018-01-26T04:55:00.915Z,959.56
2018-01-26T04:56:00.921Z,959.62
2018-01-26T04:57:00.905Z,959.61
2018-01-26T04:58:00.902Z,959.68
2018-01-26T04:59:00.897Z,959.67
2018-01-26T05:00:00.907Z,959.72
2018-01-26T05:01:00.890Z,959.68
2018-01-26T05:02:00.887Z,959.69
2018-01-26T05:03:00.885Z,959.73
2018-01-26T05:04:00.879Z,959.78
2018-01-26T05:05:00.878Z,959.79
2018-01-26T05:06:00.874Z,959.78
2018-01-26T05:07:00.872Z,959.82
2018-01-26T05:08:00.867Z,959.81
2018-01-26T05:09:00.866Z,959.80
2018-01-26T05:10:00.872Z,959.80
2018-01-26T05:11:00.860Z,959.83
2018-01-26T05:12:00.875Z,959.81
2018-01-26T05:13:00.854Z,959.83
2018-01-26T05:14:00.845Z,959.83
2018-01-26T05:15:00.843Z,959.85
2018-01-26T05:16:00.840Z,959.91
2018-01-26T05:17:00.835Z,959.89
2018-01-26T05:18:00.832Z,959.91
2018-01-26T05:19:00.830Z,959.92
2018-01-26T05:20:00.827Z,959.92
2018-01-26T05:21:00.824Z,959.91
2018-01-26T05:22:00.820Z,959.95
2018-01-26T05:23:00.816Z,959.98
2018-01-26T05:24:00.814Z,959.98
2018-01-26T05:25:00.822Z,960.03
2018-01-26T05:26:00.808Z,960.00
2018-01-26T05:27:00.804Z,960.04
2018-01-26T05:28:00.800Z,960.09
2018-01-26T05:29:00.823Z,960.07
2018-01-26T05:30:00.800Z,960.09
2018-01-26T05:31:00.788Z,960.08
2018-01-26T05:32:00.784Z,960.08
2018-01-26T05:33:00.783Z,960.07
2018-01-26T05:34:00.783Z,960.06
2018-01-26T05:35:00.797Z,960.07
2018-01-26T05:36:00.790Z,960.08
2018-01-26T05:37:00.769Z,960.11
2018-01-26T05:38:00.764Z,960.13
2018-01-26T05:39:00.763Z,960.18
2018-01-26T05:40:00.759Z,960.18
2018-01-26T05:41:00.753Z,960.13
2018-01-26T05:42:00.766Z,960.15
2018-01-26T05:43:00.749Z,960.15
2018-01-26T05:44:00.777Z,960.12
2018-01-26T05:45:00.745Z,960.13
2018-01-26T05:46:00.741Z,960.14
2018-01-26T05:47:00.756Z,960.08
2018-01-26T05:48:00.737Z,960.11
2018-01-26T05:49:00.743Z,960.10
2018-01-26T05:50:00.741Z,960.10
2018-01-26T05:51:00.731Z,960.12
2018-01-26T05:52:00.719Z,960.15
2018-01-26T05:53:00.717Z,960.14
2018-01-26T05:54:00.715Z,960.15
2018-01-26T05:55:00.712Z,960.16
2018-01-26T05:56:00.737Z,960.15
2018-01-26T05:57:00.728Z,960.20
2018-01-26T05:58:00.702Z,960.19
2018-01-26T05:59:00.698Z,960.23
2018-01-26T06:00:00.695Z,960.22
2018-01-26T06:01:00.691Z,960.28
2018-01-26T06:02:00.716Z,960.25
2018-01-26T06:03:00.684Z,960.29
2018-01-26T06:04:00.713Z,960.28
2018-01-26T06:05:00.692Z,960.26
2018-01-26T06:06:00.803Z,960.28
2018-01-26T06:07:00.672Z,960.30
2018-01-26T06:08:00.687Z,960.28
2018-01-26T06:09:00.665Z,960.29
2018-01-26T06:10:00.661Z,960.29
2018-01-26T06:11:00.684Z,960.33
2018-01-26T06:12:00.744Z,960.28
2018-01-26T06:13:13.175Z,960.31
2018-01-26T06:14:07.190Z,960.32
2018-01-26T06:16:01.802Z,960.35
2018-01-26T06:17:01.527Z,960.36
2018-01-26T06:18:56.707Z,960.36
2018-01-26T06:19:56.084Z,960.33
2018-01-26T06:22:14.254Z,960.31
2018-01-26T06:22:51.488Z,960.34
2018-01-26T06:24:47.760Z,960.40
2018-01-26T06:25:49.344Z,960.36
2018-01-26T06:26:47.546Z,960.36
2018-01-26T06:27:47.568Z,960.36
2018-01-26T06:28:47.425Z,960.38
2018-01-26T06:29:47.426Z,960.41
2018-01-26T06:30:47.396Z,960.43
2018-01-26T06:31:47.411Z,960.40
2018-01-26T06:32:47.391Z,960.41
2018-01-26T06:33:47.687Z,960.44
2018-01-26T06:34:47.383Z,960.39
2018-01-26T06:35:51.179Z,960.38
2018-01-26T06:36:47.455Z,960.41
2018-01-26T06:37:47.373Z,960.42
2018-01-26T06:38:48.954Z,960.50
2018-01-26T06:39:51.257Z,960.51
2018-01-26T06:40:48.969Z,960.53
2018-01-26T06:41:47.539Z,960.50
2018-01-26T06:42:49.230Z,960.56
2018-01-26T06:44:13.394Z,960.53
2018-01-26T06:45:44.820Z,960.51
2018-01-26T06:46:42.906Z,960.43
2018-01-26T06:47:42.753Z,960.48
2018-01-26T06:48:42.965Z,960.52
2018-01-26T06:49:43.531Z,960.53
2018-01-26T07:15:02.828Z,960.77
2018-01-26T07:16:03.744Z,960.74
2018-01-26T07:17:02.525Z,960.82
2018-01-26T07:18:02.485Z,960.85
2018-01-26T07:19:02.522Z,960.87
2018-01-26T07:20:02.485Z,960.83
2018-01-26T07:21:02.490Z,960.86
2018-01-26T07:22:04.614Z,960.89
2018-01-26T07:23:02.536Z,960.91
2018-01-26T07:24:03.024Z,960.91
2018-01-26T07:25:02.473Z,960.88
2018-01-26T07:26:02.517Z,960.98
2018-01-26T07:27:02.555Z,960.95
2018-01-26T07:28:02.458Z,960.94
2018-01-26T07:29:02.455Z,960.95
2018-01-26T07:30:02.541Z,961.01
2018-01-26T07:31:02.421Z,961.00
2018-01-26T07:32:02.370Z,961.05
2018-01-26T07:33:02.364Z,961.03
2018-01-26T07:34:02.385Z,961.07
2018-01-26T07:35:02.360Z,961.06
2018-01-26T07:36:03.010Z,961.03
2018-01-26T07:37:02.516Z,961.09
2018-01-26T07:38:02.381Z,961.03
2018-01-26T07:39:02.367Z,961.05
2018-01-26T07:40:02.343Z,961.12
2018-01-26T07:41:02.351Z,961.10
2018-01-26T07:42:02.335Z,961.13
2018-01-26T07:43:02.332Z,961.16
2018-01-26T07:44:02.619Z,961.12
2018-01-26T07:45:02.570Z,961.14
2018-01-26T07:46:02.373Z,961.13
2018-01-26T07:47:02.930Z,961.14
2018-01-26T07:48:02.336Z,961.13
2018-01-26T07:49:02.311Z,961.16
2018-01-26T07:50:02.311Z,961.16
2018-01-26T07:51:04.950Z,961.17
2018-01-26T07:52:02.305Z,961.18
2018-01-26T07:53:02.295Z,961.19
2018-01-26T07:54:02.301Z,961.20
2018-01-26T07:55:02.925Z,961.18
2018-01-26T07:56:02.305Z,961.21
2018-01-26T07:57:02.287Z,961.22
2018-01-26T07:58:02.281Z,961.24
2018-01-26T07:59:02.278Z,961.22
2018-01-26T08:09:46.293Z,961.27
2018-01-26T08:10:33.102Z,961.29
2018-01-26T08:11:31.332Z,961.29
2018-01-26T08:12:39.444Z,961.27
2018-01-26T08:14:26.149Z,961.30
2018-01-26T08:15:25.723Z,961.30
2018-01-26T08:16:25.334Z,961.32
2018-01-26T08:17:25.336Z,961.26
2018-01-26T08:18:25.424Z,961.29
2018-01-26T08:19:25.317Z,961.30
2018-01-26T08:20:25.311Z,961.33
2018-01-26T08:21:25.559Z,961.33
2018-01-26T08:22:25.451Z,961.33
2018-01-26T08:23:25.437Z,961.34
2018-01-26T08:24:25.605Z,961.30
2018-01-26T08:25:27.451Z,961.32
2018-01-26T08:26:28.561Z,961.33
2018-01-26T08:27:35.143Z,961.34
2018-01-26T08:29:21.528Z,961.38
2018-01-26T08:30:54.679Z,961.38
2018-01-26T08:32:44.524Z,961.41
2018-01-26T08:35:34.887Z,961.37
2018-01-26T08:36:25.368Z,961.38
2018-01-26T08:38:13.109Z,961.38
2018-01-26T08:39:15.225Z,961.37
2018-01-26T08:40:12.903Z,961.37
2018-01-26T08:41:14.043Z,961.36
2018-01-26T08:42:14.457Z,961.39
2018-01-26T08:44:59.013Z,961.42
2018-01-26T08:45:59.049Z,961.43
2018-01-26T08:47:53.468Z,961.50
2018-01-26T08:48:53.448Z,961.49
2018-01-26T08:50:47.708Z,961.52
2018-01-26T08:51:47.698Z,961.55
2018-01-26T08:53:42.252Z,961.63
2018-01-26T08:54:42.091Z,961.65
2018-01-26T08:56:36.706Z,961.70
2018-01-26T08:57:36.638Z,961.68
2018-01-26T08:59:32.477Z,961.68
2018-01-26T09:00:30.942Z,961.67
2018-01-26T09:01:30.878Z,961.72
2018-01-26T09:02:30.834Z,961.72
2018-01-26T09:03:30.801Z,961.68
2018-01-26T09:04:30.759Z,961.69
2018-01-26T09:05:32.352Z,961.73
2018-01-26T09:06:30.796Z,961.76
2018-01-26T09:07:33.377Z,961.74
2018-01-26T09:08:30.738Z,961.77
2018-01-26T09:09:33.607Z,961.78
2018-01-26T09:10:30.994Z,961.79
2018-01-26T09:11:30.692Z,961.83
2018-01-26T09:12:32.570Z,961.84
2018-01-26T09:13:30.735Z,961.86
2018-01-26T09:14:30.675Z,961.88
2018-01-26T09:15:30.675Z,961.89
2018-01-26T09:16:30.666Z,961.94
2018-01-26T09:17:30.666Z,961.90
2018-01-26T09:19:53.782Z,961.96
2018-01-26T09:20:53.686Z,961.93
2018-01-26T09:22:52.515Z,961.93
2018-01-26T09:24:01.308Z,961.98
2018-01-26T09:25:45.686Z,962.00
2018-01-26T09:26:45.573Z,962.00
2018-01-26T09:31:51.135Z,962.08
2018-01-26T09:32:42.807Z,962.11
2018-01-26T09:34:37.127Z,962.11
2018-01-26T09:35:36.491Z,962.12
2018-01-26T09:37:33.084Z,962.19
2018-01-26T09:38:32.581Z,962.17
2018-01-26T09:39:32.089Z,962.19
2018-01-26T09:40:31.795Z,962.20
2018-01-26T09:41:33.008Z,962.21
2018-01-26T09:42:31.895Z,962.24
2018-01-26T09:43:31.791Z,962.24
2018-01-26T09:44:31.799Z,962.21
2018-01-26T09:45:31.635Z,962.27
2018-01-26T09:46:31.631Z,962.30
2018-01-26T09:47:31.644Z,962.30
2018-01-26T09:48:31.628Z,962.32
2018-01-26T09:49:31.621Z,962.33
2018-01-26T09:50:31.682Z,962.34
2018-01-26T09:51:31.637Z,962.40
2018-01-26T09:52:31.614Z,962.43
2018-01-26T09:53:31.612Z,962.41
2018-01-26T09:54:31.606Z,962.45
2018-01-26T09:55:31.651Z,962.49
2018-01-26T09:56:31.604Z,962.48
2018-01-26T09:57:31.599Z,962.48
2018-01-26T09:58:31.595Z,962.46
2018-01-26T09:59:31.610Z,962.47
2018-01-26T10:02:05.736Z,962.54
2018-01-26T10:03:04.956Z,962.55
2018-01-26T10:04:59.076Z,962.54
2018-01-26T10:05:59.066Z,962.55
2018-01-26T10:07:53.771Z,962.56
2018-01-26T10:08:53.670Z,962.56
2018-01-26T10:10:49.229Z,962.56
2018-01-26T10:13:56.143Z,962.54
2018-01-26T10:14:56.016Z,962.56
2018-01-26T10:15:55.685Z,962.55
2018-01-26T10:16:55.662Z,962.59
2018-01-26T10:17:55.955Z,962.57
2018-01-26T10:18:55.655Z,962.58
2018-01-26T10:19:55.729Z,962.52
2018-01-26T10:20:55.650Z,962.58
2018-01-26T10:21:55.622Z,962.52
2018-01-26T10:22:55.594Z,962.49
2018-01-26T10:23:55.599Z,962.47
2018-01-26T10:24:55.590Z,962.47
2018-01-26T10:25:55.593Z,962.49
2018-01-26T10:26:55.643Z,962.49
2018-01-26T10:27:55.585Z,962.50
2018-01-26T10:28:55.585Z,962.54
2018-01-26T10:29:55.580Z,962.58
2018-01-26T10:30:55.575Z,962.62
2018-01-26T10:31:55.579Z,962.67
2018-01-26T10:32:55.573Z,962.69
2018-01-26T10:33:55.582Z,962.73
2018-01-26T10:34:55.573Z,962.75
2018-01-26T10:35:55.576Z,962.76
2018-01-26T10:36:55.564Z,962.83
2018-01-26T10:37:55.568Z,962.83
2018-01-26T10:38:55.563Z,962.79
2018-01-26T10:39:55.582Z,962.83
2018-01-26T10:40:55.590Z,962.80
2018-01-26T10:41:55.558Z,962.81
2018-01-26T10:42:55.581Z,962.84
2018-01-26T10:43:55.549Z,962.75
2018-01-26T10:44:55.545Z,962.76
2018-01-26T10:45:55.545Z,962.78
2018-01-26T10:46:55.554Z,962.73
2018-01-26T10:47:55.565Z,962.77
2018-01-26T10:48:55.541Z,962.74
2018-01-26T10:49:55.597Z,962.77
2018-01-26T10:50:55.534Z,962.79
2018-01-26T10:51:55.532Z,962.85
2018-01-26T10:52:55.537Z,962.89
2018-01-26T10:53:55.532Z,962.92
2018-01-26T10:54:55.523Z,962.89
2018-01-26T10:55:55.538Z,962.95
2018-01-26T10:56:55.523Z,962.93
2018-01-26T10:57:55.521Z,962.93
2018-01-26T10:58:55.667Z,962.90
2018-01-26T11:00:04.379Z,962.88
2018-01-26T11:06:19.570Z,962.97
2018-01-26T11:07:18.690Z,963.03
2018-01-26T11:09:13.450Z,963.04
2018-01-26T11:10:12.801Z,963.05
2018-01-26T11:12:07.472Z,963.05
2018-01-26T11:13:07.073Z,963.03
2018-01-26T11:15:01.902Z,963.08
2018-01-26T11:16:01.573Z,963.06
2018-01-26T11:17:56.126Z,963.09
2018-01-26T11:18:55.891Z,963.13
2018-01-26T11:20:50.815Z,963.12
2018-01-26T11:21:50.926Z,963.16
2018-01-26T11:23:44.811Z,963.20
2018-01-26T11:24:44.681Z,963.20
2018-01-26T11:26:39.254Z,963.16
2018-01-26T11:27:39.104Z,963.17
2018-01-26T11:29:33.703Z,963.22
2018-01-26T11:30:33.677Z,963.19
2018-01-26T11:32:28.557Z,963.18
2018-01-26T11:33:27.722Z,963.22
2018-01-26T11:35:27.446Z,963.19
2018-01-26T11:36:25.910Z,963.21
2018-01-26T11:37:25.581Z,963.16
2018-01-26T11:38:25.477Z,963.17
2018-01-26T11:39:25.277Z,963.20
2018-01-26T11:40:25.256Z,963.23
2018-01-26T11:41:25.624Z,963.24
2018-01-26T11:42:25.585Z,963.25
2018-01-26T11:43:25.486Z,963.24
2018-01-26T11:44:25.535Z,963.31
2018-01-26T11:45:25.564Z,963.25
2018-01-26T11:46:25.598Z,963.30
2018-01-26T11:47:26.708Z,963.26
2018-01-26T11:48:25.639Z,963.31
2018-01-26T11:49:25.203Z,963.28
2018-01-26T11:50:25.252Z,963.31
2018-01-26T11:51:25.207Z,963.33
2018-01-26T11:52:25.199Z,963.31
2018-01-26T11:53:25.182Z,963.29
2018-01-26T11:54:25.187Z,963.31
2018-01-26T11:55:25.182Z,963.28
2018-01-26T11:56:25.220Z,963.29
2018-01-26T11:57:25.171Z,963.28
2018-01-26T11:58:25.170Z,963.29
2018-01-26T11:59:25.165Z,963.27
2018-01-26T12:00:25.164Z,963.25
2018-01-26T12:01:25.163Z,963.25
2018-01-26T12:02:25.160Z,963.33
2018-01-26T12:03:25.170Z,963.38
2018-01-26T12:04:25.243Z,963.42
2018-01-26T12:05:25.151Z,963.39
2018-01-26T12:06:25.146Z,963.39
2018-01-26T12:07:25.145Z,963.38
2018-01-26T12:08:28.002Z,963.35
2018-01-26T12:09:25.144Z,963.35
2018-01-26T12:10:25.138Z,963.29
2018-01-26T12:11:25.136Z,963.28
2018-01-26T12:12:25.491Z,963.35
2018-01-26T12:13:25.128Z,963.32
2018-01-26T12:14:25.124Z,963.32
2018-01-26T12:15:25.126Z,963.32
2018-01-26T12:16:25.121Z,963.35
2018-01-26T12:17:25.219Z,963.35
2018-01-26T12:18:25.132Z,963.36
2018-01-26T12:19:25.128Z,963.32
2018-01-26T12:20:25.133Z,963.30
2018-01-26T12:21:25.111Z,963.28
2018-01-26T12:22:25.107Z,963.30
2018-01-26T12:23:25.170Z,963.32
2018-01-26T12:24:25.186Z,963.34
2018-01-26T12:25:25.195Z,963.40
2018-01-26T12:26:25.193Z,963.44
2018-01-26T12:27:25.169Z,963.46
2018-01-26T12:28:25.186Z,963.49
2018-01-26T12:29:25.186Z,963.47
2018-01-26T12:30:25.633Z,963.49
2018-01-26T12:31:25.176Z,963.40
2018-01-26T12:32:25.186Z,963.42
2018-01-26T12:33:25.171Z,963.38
2018-01-26T12:34:25.188Z,963.35
2018-01-26T12:35:25.165Z,963.36
2018-01-26T12:36:25.095Z,963.37
2018-01-26T12:37:25.081Z,963.41
2018-01-26T12:38:25.296Z,963.37
2018-01-26T12:39:25.078Z,963.34
2018-01-26T12:40:25.079Z,963.30
2018-01-26T12:41:25.060Z,963.29
2018-01-26T12:42:25.057Z,963.30
2018-01-26T12:43:25.064Z,963.32
2018-01-26T12:44:25.049Z,963.35
2018-01-26T12:45:25.047Z,963.44
2018-01-26T12:46:25.045Z,963.50
2018-01-26T12:47:25.087Z,963.55
2018-01-26T12:48:25.052Z,963.58
2018-01-26T12:49:25.053Z,963.59
2018-01-26T12:50:25.046Z,963.67
2018-01-26T12:51:25.044Z,963.68
2018-01-26T12:52:25.042Z,963.65
2018-01-26T12:53:25.040Z,963.70
2018-01-26T12:54:25.037Z,963.69
2018-01-26T12:55:25.034Z,963.66
2018-01-26T12:56:25.032Z,963.64
2018-01-26T12:57:25.030Z,963.66
2018-01-26T12:58:25.028Z,963.65
2018-01-26T12:59:25.024Z,963.66
2018-01-26T13:00:25.025Z,963.76
2018-01-26T13:01:25.046Z,963.76
2018-01-26T13:02:25.017Z,963.78
2018-01-26T13:03:25.014Z,963.79
2018-01-26T13:04:25.014Z,963.81
2018-01-26T13:05:25.019Z,963.77
2018-01-26T13:06:25.007Z,963.82
2018-01-26T13:07:25.076Z,963.87
2018-01-26T13:08:25.000Z,963.86
2018-01-26T13:09:25.041Z,963.90
2018-01-26T13:10:24.985Z,963.94
2018-01-26T13:11:24.990Z,963.86
2018-01-26T13:12:24.993Z,963.93
2018-01-26T13:13:24.987Z,963.92
2018-01-26T13:14:24.981Z,963.91
2018-01-26T13:15:24.981Z,963.92
2018-01-26T13:16:24.982Z,963.86
2018-01-26T13:17:24.975Z,963.86
2018-01-26T13:18:24.970Z,963.80
2018-01-26T13:19:24.969Z,963.82
2018-01-26T13:20:24.956Z,963.79
2018-01-26T13:21:24.965Z,963.82
2018-01-26T13:22:24.962Z,963.84
2018-01-26T13:23:24.959Z,963.84
2018-01-26T13:24:24.957Z,963.79
2018-01-26T13:25:24.954Z,963.76
2018-01-26T13:26:24.952Z,963.79
2018-01-26T13:27:24.947Z,963.82
2018-01-26T13:28:24.947Z,963.78
2018-01-26T13:29:24.942Z,963.80
2018-01-26T13:30:24.941Z,963.80
2018-01-26T13:31:25.091Z,963.84
2018-01-26T13:32:24.936Z,963.84
2018-01-26T13:33:24.930Z,963.88
2018-01-26T13:34:24.932Z,963.88
2018-01-26T13:35:24.926Z,963.90
2018-01-26T13:36:24.926Z,963.89
2018-01-26T13:37:24.920Z,963.88
2018-01-26T13:38:24.909Z,963.88
2018-01-26T13:39:24.917Z,963.94
2018-01-26T13:40:24.953Z,963.94
2018-01-26T13:41:24.899Z,963.94
2018-01-26T13:42:24.942Z,963.98
2018-01-26T13:43:24.893Z,963.97
2018-01-26T13:44:24.893Z,964.02
2018-01-26T13:45:24.891Z,964.01
2018-01-26T13:46:24.884Z,964.06
2018-01-26T13:47:24.900Z,964.04
2018-01-26T13:48:24.880Z,964.13